sensor_id;sensor_type;location;lat;lon;timestamp;pressure;altitude;pressure_sealevel;temperature;humidity
54236;BME280;40151;43.606;1.472;2023-05-17T00:02:03;99766.97;;;19.63;52.89
54236;BME280;40151;43.606;1.472;2023-05-17T00:04:29;99768.75;;;19.63;52.99
54236;BME280;40151;43.606;1.472;2023-05-17T00:06:54;99763.44;;;19.63;52.91
54236;BME280;40151;43.606;1.472;2023-05-17T00:09:20;99768.75;;;19.63;52.71
54236;BME280;40151;43.606;1.472;2023-05-17T00:11:45;99758.22;;;19.61;52.75
54236;BME280;40151;43.606;1.472;2023-05-17T00:14:11;99768.81;;;19.61;52.90
54236;BME280;40151;43.606;1.472;2023-05-17T00:16:36;99756.53;;;19.60;52.82
54236;BME280;40151;43.606;1.472;2023-05-17T00:19:02;99768.03;;;19.59;53.13
54236;BME280;40151;43.606;1.472;2023-05-17T00:21:27;99759.22;;;19.58;52.58
54236;BME280;40151;43.606;1.472;2023-05-17T00:23:53;99752.22;;;19.57;52.94
54236;BME280;40151;43.606;1.472;2023-05-17T00:26:18;99755.81;;;19.56;52.91
54236;BME280;40151;43.606;1.472;2023-05-17T00:28:44;99752.31;;;19.56;52.81
54236;BME280;40151;43.606;1.472;2023-05-17T00:31:09;99752.22;;;19.57;52.68
54236;BME280;40151;43.606;1.472;2023-05-17T00:33:35;99754.09;;;19.55;52.59
54236;BME280;40151;43.606;1.472;2023-05-17T00:36:00;99739.94;;;19.56;52.92
54236;BME280;40151;43.606;1.472;2023-05-17T00:38:26;99741.81;;;19.54;52.68
54236;BME280;40151;43.606;1.472;2023-05-17T00:40:51;99743.53;;;19.55;52.77
54236;BME280;40151;43.606;1.472;2023-05-17T00:43:18;99741.81;;;19.54;52.57
54236;BME280;40151;43.606;1.472;2023-05-17T00:45:43;99741.81;;;19.54;52.63
54236;BME280;40151;43.606;1.472;2023-05-17T00:48:09;99740.09;;;19.53;52.80
54236;BME280;40151;43.606;1.472;2023-05-17T00:50:35;99741.81;;;19.54;52.80
54236;BME280;40151;43.606;1.472;2023-05-17T00:53:00;99744.53;;;19.53;52.85
54236;BME280;40151;43.606;1.472;2023-05-17T00:55:26;99738.38;;;19.52;52.71
54236;BME280;40151;43.606;1.472;2023-05-17T00:57:51;99739.31;;;19.51;52.70
54236;BME280;40151;43.606;1.472;2023-05-17T01:00:17;99747.25;;;19.51;52.81
54236;BME280;40151;43.606;1.472;2023-05-17T01:02:43;99734.97;;;19.50;52.50
54236;BME280;40151;43.606;1.472;2023-05-17T01:05:08;99734.97;;;19.50;52.54
54236;BME280;40151;43.606;1.472;2023-05-17T01:07:34;99732.31;;;19.50;52.57
54236;BME280;40151;43.606;1.472;2023-05-17T01:09:59;99733.25;;;19.49;52.69
54236;BME280;40151;43.606;1.472;2023-05-17T01:18:08;99739.47;;;19.48;52.73
54236;BME280;40151;43.606;1.472;2023-05-17T01:20:39;99736.84;;;19.48;52.69
54236;BME280;40151;43.606;1.472;2023-05-17T01:28:37;99736.97;;;19.45;52.50
54236;BME280;40151;43.606;1.472;2023-05-17T01:31:03;99732.47;;;19.47;52.51
54236;BME280;40151;43.606;1.472;2023-05-17T01:33:30;99734.25;;;19.47;52.58
54236;BME280;40151;43.606;1.472;2023-05-17T01:35:56;99735.41;;;19.41;52.46
54236;BME280;40151;43.606;1.472;2023-05-17T01:38:21;99730.09;;;19.41;52.58
54236;BME280;40151;43.606;1.472;2023-05-17T01:46:17;99730.28;;;19.38;52.58
54236;BME280;40151;43.606;1.472;2023-05-17T01:48:53;99731.22;;;19.37;52.51
54236;BME280;40151;43.606;1.472;2023-05-17T01:51:27;99733.00;;;19.36;52.55
54236;BME280;40151;43.606;1.472;2023-05-17T01:54:01;99728.78;;;19.32;52.38
54236;BME280;40151;43.606;1.472;2023-05-17T01:56:34;99725.28;;;19.31;52.31
54236;BME280;40151;43.606;1.472;2023-05-17T01:59:02;99727.94;;;19.31;52.50
54236;BME280;40151;43.606;1.472;2023-05-17T02:01:31;99724.34;;;19.32;52.51
54236;BME280;40151;43.606;1.472;2023-05-17T02:03:57;99723.59;;;19.30;52.16
54236;BME280;40151;43.606;1.472;2023-05-17T02:06:22;99720.84;;;19.32;52.24
54236;BME280;40151;43.606;1.472;2023-05-17T02:08:48;99723.59;;;19.30;52.52
54236;BME280;40151;43.606;1.472;2023-05-17T02:11:13;99720.16;;;19.28;52.42
54236;BME280;40151;43.606;1.472;2023-05-17T02:13:38;99716.59;;;19.29;52.43
54236;BME280;40151;43.606;1.472;2023-05-17T02:16:04;99724.53;;;19.29;52.36
54236;BME280;40151;43.606;1.472;2023-05-17T02:18:30;99718.28;;;19.30;52.38
54236;BME280;40151;43.606;1.472;2023-05-17T02:20:56;99724.53;;;19.29;52.41
54236;BME280;40151;43.606;1.472;2023-05-17T02:23:22;99720.16;;;19.28;52.44
54236;BME280;40151;43.606;1.472;2023-05-17T02:25:49;99717.66;;;19.25;52.31
54236;BME280;40151;43.606;1.472;2023-05-17T02:28:15;99724.66;;;19.26;52.35
54236;BME280;40151;43.606;1.472;2023-05-17T02:30:40;99712.63;;;19.21;52.35
54236;BME280;40151;43.606;1.472;2023-05-17T02:33:06;99722.16;;;19.23;52.17
54236;BME280;40151;43.606;1.472;2023-05-17T02:35:32;99729.19;;;19.24;52.33
54236;BME280;40151;43.606;1.472;2023-05-17T02:37:58;99727.56;;;19.22;52.35
54236;BME280;40151;43.606;1.472;2023-05-17T02:40:23;99729.19;;;19.24;52.18
54236;BME280;40151;43.606;1.472;2023-05-17T02:42:48;99719.50;;;19.23;52.30
54236;BME280;40151;43.606;1.472;2023-05-17T02:45:14;99717.03;;;19.20;52.17
54236;BME280;40151;43.606;1.472;2023-05-17T02:47:39;99721.31;;;19.23;52.28
54236;BME280;40151;43.606;1.472;2023-05-17T02:50:05;99730.09;;;19.23;52.21
54236;BME280;40151;43.606;1.472;2023-05-17T02:52:30;99725.75;;;19.22;52.10
54236;BME280;40151;43.606;1.472;2023-05-17T02:54:56;99731.19;;;19.19;52.39
54236;BME280;40151;43.606;1.472;2023-05-17T02:57:21;99727.63;;;19.20;52.41
54236;BME280;40151;43.606;1.472;2023-05-17T02:59:46;99731.34;;;19.16;52.28
54236;BME280;40151;43.606;1.472;2023-05-17T03:02:12;99738.34;;;19.17;52.27
54236;BME280;40151;43.606;1.472;2023-05-17T03:04:37;99731.34;;;19.16;52.31
54236;BME280;40151;43.606;1.472;2023-05-17T03:07:03;99744.50;;;19.17;52.10
54236;BME280;40151;43.606;1.472;2023-05-17T03:09:28;99735.78;;;19.15;52.11
54236;BME280;40151;43.606;1.472;2023-05-17T03:11:54;99733.22;;;19.14;52.25
54236;BME280;40151;43.606;1.472;2023-05-17T03:14:20;99726.22;;;19.13;52.09
54236;BME280;40151;43.606;1.472;2023-05-17T03:16:45;99733.34;;;19.11;51.97
54236;BME280;40151;43.606;1.472;2023-05-17T03:19:11;99731.50;;;19.13;52.39
54236;BME280;40151;43.606;1.472;2023-05-17T03:21:36;99731.50;;;19.13;52.19
54236;BME280;40151;43.606;1.472;2023-05-17T03:24:01;99727.16;;;19.12;52.15
54236;BME280;40151;43.606;1.472;2023-05-17T03:26:27;99729.78;;;19.12;52.13
54236;BME280;40151;43.606;1.472;2023-05-17T03:28:52;99725.56;;;19.08;52.13
54236;BME280;40151;43.606;1.472;2023-05-17T03:31:18;99728.22;;;19.08;52.09
54236;BME280;40151;43.606;1.472;2023-05-17T03:33:43;99721.22;;;19.07;52.21
54236;BME280;40151;43.606;1.472;2023-05-17T03:36:10;99719.34;;;19.09;52.20
54236;BME280;40151;43.606;1.472;2023-05-17T03:38:35;99728.22;;;19.08;51.96
54236;BME280;40151;43.606;1.472;2023-05-17T03:41:01;99719.47;;;19.05;51.93
54236;BME280;40151;43.606;1.472;2023-05-17T03:43:27;99715.94;;;19.07;52.20
54236;BME280;40151;43.606;1.472;2023-05-17T03:45:53;99728.22;;;19.08;52.08
54236;BME280;40151;43.606;1.472;2023-05-17T03:48:18;99720.34;;;19.06;51.86
54236;BME280;40151;43.606;1.472;2023-05-17T03:50:44;99720.41;;;19.04;52.00
54236;BME280;40151;43.606;1.472;2023-05-17T03:53:09;99724.78;;;19.05;51.88
54236;BME280;40151;43.606;1.472;2023-05-17T03:55:35;99729.28;;;19.03;52.01
54236;BME280;40151;43.606;1.472;2023-05-17T03:58:01;99731.09;;;19.03;51.83
54236;BME280;40151;43.606;1.472;2023-05-17T04:00:26;99726.66;;;19.03;51.78
54236;BME280;40151;43.606;1.472;2023-05-17T04:02:51;99724.03;;;19.02;51.74
54236;BME280;40151;43.606;1.472;2023-05-17T04:05:17;99724.91;;;19.02;51.85
54236;BME280;40151;43.606;1.472;2023-05-17T04:07:43;99724.03;;;19.02;51.72
54236;BME280;40151;43.606;1.472;2023-05-17T04:10:09;99726.78;;;19.00;52.11
54236;BME280;40151;43.606;1.472;2023-05-17T04:12:35;99723.50;;;18.95;52.06
54236;BME280;40151;43.606;1.472;2023-05-17T04:15:00;99727.06;;;18.94;51.90
54236;BME280;40151;43.606;1.472;2023-05-17T04:17:26;99721.69;;;18.96;51.96
54236;BME280;40151;43.606;1.472;2023-05-17T04:19:52;99723.50;;;18.95;51.80
54236;BME280;40151;43.606;1.472;2023-05-17T04:22:19;99727.16;;;18.92;51.95
54236;BME280;40151;43.606;1.472;2023-05-17T04:24:44;99729.72;;;18.94;52.17
54236;BME280;40151;43.606;1.472;2023-05-17T04:27:10;99727.84;;;18.96;51.94
54236;BME280;40151;43.606;1.472;2023-05-17T04:29:35;99723.50;;;18.95;51.84
54236;BME280;40151;43.606;1.472;2023-05-17T04:32:01;99725.22;;;18.96;51.80
54236;BME280;40151;43.606;1.472;2023-05-17T04:34:26;99711.22;;;18.94;51.88
54236;BME280;40151;43.606;1.472;2023-05-17T04:36:51;99722.69;;;18.93;51.65
54236;BME280;40151;43.606;1.472;2023-05-17T04:39:17;99718.34;;;18.92;51.58
54236;BME280;40151;43.606;1.472;2023-05-17T04:41:43;99714.06;;;18.89;51.68
54236;BME280;40151;43.606;1.472;2023-05-17T04:44:08;99729.91;;;18.89;51.81
54236;BME280;40151;43.606;1.472;2023-05-17T04:46:33;99734.38;;;18.89;51.91
54236;BME280;40151;43.606;1.472;2023-05-17T04:48:59;99732.63;;;18.88;51.75
54236;BME280;40151;43.606;1.472;2023-05-17T04:51:25;99735.38;;;18.86;51.79
54236;BME280;40151;43.606;1.472;2023-05-17T04:53:51;99735.38;;;18.86;51.66
54236;BME280;40151;43.606;1.472;2023-05-17T04:56:17;99738.84;;;18.87;51.51
54236;BME280;40151;43.606;1.472;2023-05-17T04:58:42;99746.94;;;18.84;51.75
54236;BME280;40151;43.606;1.472;2023-05-17T05:01:08;99743.50;;;18.82;51.55
54236;BME280;40151;43.606;1.472;2023-05-17T05:03:33;99749.59;;;18.84;51.43
54236;BME280;40151;43.606;1.472;2023-05-17T05:05:58;99745.09;;;18.86;51.70
54236;BME280;40151;43.606;1.472;2023-05-17T05:08:24;99739.03;;;18.84;51.74
54236;BME280;40151;43.606;1.472;2023-05-17T05:10:49;99748.66;;;18.85;51.59
54236;BME280;40151;43.606;1.472;2023-05-17T05:13:15;99750.38;;;18.86;51.57
54236;BME280;40151;43.606;1.472;2023-05-17T05:15:41;99751.25;;;18.86;51.61
54236;BME280;40151;43.606;1.472;2023-05-17T05:18:06;99759.16;;;18.86;51.35
54236;BME280;40151;43.606;1.472;2023-05-17T05:20:32;99759.06;;;18.88;51.51
54236;BME280;40151;43.606;1.472;2023-05-17T05:22:57;99767.94;;;18.87;51.27
54236;BME280;40151;43.606;1.472;2023-05-17T05:25:25;99769.66;;;18.88;51.28
54236;BME280;40151;43.606;1.472;2023-05-17T05:27:50;99768.03;;;18.85;51.24
54236;BME280;40151;43.606;1.472;2023-05-17T05:30:15;99773.22;;;18.87;51.55
54236;BME280;40151;43.606;1.472;2023-05-17T05:32:49;99774.16;;;18.86;51.36
54236;BME280;40151;43.606;1.472;2023-05-17T05:35:15;99766.22;;;18.86;51.28
54236;BME280;40151;43.606;1.472;2023-05-17T05:37:42;99771.53;;;18.86;51.29
54236;BME280;40151;43.606;1.472;2023-05-17T05:40:08;99769.75;;;18.86;51.18
54236;BME280;40151;43.606;1.472;2023-05-17T05:42:34;99769.81;;;18.85;51.40
54236;BME280;40151;43.606;1.472;2023-05-17T05:44:59;99775.09;;;18.85;51.31
54236;BME280;40151;43.606;1.472;2023-05-17T05:47:25;99773.38;;;18.84;51.59
54236;BME280;40151;43.606;1.472;2023-05-17T05:49:50;99770.69;;;18.85;51.67
54236;BME280;40151;43.606;1.472;2023-05-17T05:52:16;99776.97;;;18.83;51.37
54236;BME280;40151;43.606;1.472;2023-05-17T05:54:41;99773.38;;;18.84;51.67
54236;BME280;40151;43.606;1.472;2023-05-17T05:57:07;99775.22;;;18.82;51.49
54236;BME280;40151;43.606;1.472;2023-05-17T05:59:32;99775.22;;;18.82;51.39
54236;BME280;40151;43.606;1.472;2023-05-17T06:01:57;99776.97;;;18.83;51.35
54236;BME280;40151;43.606;1.472;2023-05-17T06:04:23;99771.75;;;18.81;51.48
54236;BME280;40151;43.606;1.472;2023-05-17T06:06:49;99778.81;;;18.81;51.24
54236;BME280;40151;43.606;1.472;2023-05-17T06:09:14;99782.38;;;18.79;51.48
54236;BME280;40151;43.606;1.472;2023-05-17T06:11:40;99786.91;;;18.77;51.31
54236;BME280;40151;43.606;1.472;2023-05-17T06:14:06;99789.53;;;18.77;51.07
54236;BME280;40151;43.606;1.472;2023-05-17T06:16:32;99796.53;;;18.78;51.58
54236;BME280;40151;43.606;1.472;2023-05-17T06:18:58;99779.81;;;18.78;51.52
54236;BME280;40151;43.606;1.472;2023-05-17T06:21:23;99788.59;;;18.78;51.30
54236;BME280;40151;43.606;1.472;2023-05-17T06:23:49;99797.47;;;18.77;51.19
54236;BME280;40151;43.606;1.472;2023-05-17T06:26:15;99791.25;;;18.78;51.37
54236;BME280;40151;43.606;1.472;2023-05-17T06:28:40;99795.59;;;18.79;51.30
54236;BME280;40151;43.606;1.472;2023-05-17T06:31:05;99791.25;;;18.78;51.36
54236;BME280;40151;43.606;1.472;2023-05-17T06:33:31;99800.81;;;18.81;51.14
54236;BME280;40151;43.606;1.472;2023-05-17T06:35:56;99803.53;;;18.79;51.26
54236;BME280;40151;43.606;1.472;2023-05-17T06:38:22;99800.97;;;18.78;51.38
54236;BME280;40151;43.606;1.472;2023-05-17T06:40:54;99797.38;;;18.79;51.47
54236;BME280;40151;43.606;1.472;2023-05-17T06:43:20;99803.53;;;18.79;51.43
54236;BME280;40151;43.606;1.472;2023-05-17T06:45:46;99803.69;;;18.76;51.21
54236;BME280;40151;43.606;1.472;2023-05-17T06:48:12;99801.81;;;18.78;51.50
54236;BME280;40151;43.606;1.472;2023-05-17T06:50:37;99809.75;;;18.78;51.26
54236;BME280;40151;43.606;1.472;2023-05-17T06:53:03;99810.75;;;18.76;51.39
54236;BME280;40151;43.606;1.472;2023-05-17T06:55:28;99804.47;;;18.78;51.56
54236;BME280;40151;43.606;1.472;2023-05-17T06:57:54;99805.53;;;18.74;51.32
54236;BME280;40151;43.606;1.472;2023-05-17T07:00:19;99806.34;;;18.76;51.31
54236;BME280;40151;43.606;1.472;2023-05-17T07:02:45;99807.41;;;18.72;51.41
54236;BME280;40151;43.606;1.472;2023-05-17T07:05:11;99810.03;;;18.72;51.62
54236;BME280;40151;43.606;1.472;2023-05-17T07:07:36;99806.41;;;18.75;51.53
54236;BME280;40151;43.606;1.472;2023-05-17T07:10:02;99804.75;;;18.72;51.53
54236;BME280;40151;43.606;1.472;2023-05-17T07:12:28;99809.09;;;18.73;51.37
54236;BME280;40151;43.606;1.472;2023-05-17T07:14:53;99812.53;;;18.75;51.54
54236;BME280;40151;43.606;1.472;2023-05-17T07:17:18;99813.41;;;18.76;51.65
54236;BME280;40151;43.606;1.472;2023-05-17T07:19:44;99810.81;;;18.74;51.47
54236;BME280;40151;43.606;1.472;2023-05-17T07:22:10;99801.06;;;18.76;51.41
54236;BME280;40151;43.606;1.472;2023-05-17T07:24:36;99806.34;;;18.76;51.71
54236;BME280;40151;43.606;1.472;2023-05-17T07:27:01;99810.81;;;18.74;51.68
54236;BME280;40151;43.606;1.472;2023-05-17T07:29:27;99801.94;;;18.75;51.64
54236;BME280;40151;43.606;1.472;2023-05-17T07:31:53;99803.81;;;18.73;51.39
54236;BME280;40151;43.606;1.472;2023-05-17T07:34:18;99809.09;;;18.73;51.66
54236;BME280;40151;43.606;1.472;2023-05-17T07:36:43;99803.69;;;18.76;51.73
54236;BME280;40151;43.606;1.472;2023-05-17T07:39:09;99804.59;;;18.75;51.60
54236;BME280;40151;43.606;1.472;2023-05-17T07:41:35;99801.94;;;18.75;51.70
54236;BME280;40151;43.606;1.472;2023-05-17T07:44:01;99800.97;;;18.78;51.65
54236;BME280;40151;43.606;1.472;2023-05-17T07:46:26;99800.13;;;18.77;51.45
54236;BME280;40151;43.606;1.472;2023-05-17T07:48:51;99800.13;;;18.77;51.43
54236;BME280;40151;43.606;1.472;2023-05-17T07:51:17;99807.25;;;18.75;51.60
54236;BME280;40151;43.606;1.472;2023-05-17T07:53:42;99811.75;;;18.73;51.75
54236;BME280;40151;43.606;1.472;2023-05-17T07:56:08;99814.34;;;18.75;51.56
54236;BME280;40151;43.606;1.472;2023-05-17T07:58:33;99808.97;;;18.76;51.93
54236;BME280;40151;43.606;1.472;2023-05-17T08:01:00;99812.41;;;18.78;51.79
54236;BME280;40151;43.606;1.472;2023-05-17T08:03:25;99806.97;;;18.82;51.89
54236;BME280;40151;43.606;1.472;2023-05-17T08:05:52;99802.75;;;18.77;51.55
54236;BME280;40151;43.606;1.472;2023-05-17T08:08:18;99807.88;;;18.81;51.77
54236;BME280;40151;43.606;1.472;2023-05-17T08:10:45;99796.38;;;18.82;51.65
54236;BME280;40151;43.606;1.472;2023-05-17T08:13:10;99799.97;;;18.81;51.93
54236;BME280;40151;43.606;1.472;2023-05-17T08:15:36;99791.09;;;18.82;51.60
54236;BME280;40151;43.606;1.472;2023-05-17T08:18:01;99787.53;;;18.83;51.65
54236;BME280;40151;43.606;1.472;2023-05-17T08:20:26;99783.97;;;18.84;51.87
54236;BME280;40151;43.606;1.472;2023-05-17T08:22:52;99797.19;;;18.84;51.59
54236;BME280;40151;43.606;1.472;2023-05-17T08:25:18;99783.97;;;18.84;51.94
54236;BME280;40151;43.606;1.472;2023-05-17T08:27:43;99785.69;;;18.85;51.66
54236;BME280;40151;43.606;1.472;2023-05-17T08:30:09;99774.22;;;18.84;51.95
54236;BME280;40151;43.606;1.472;2023-05-17T08:32:36;99780.38;;;18.85;51.99
54236;BME280;40151;43.606;1.472;2023-05-17T08:35:01;99775.88;;;18.87;51.68
54236;BME280;40151;43.606;1.472;2023-05-17T08:37:28;99769.75;;;18.86;51.63
54236;BME280;40151;43.606;1.472;2023-05-17T08:39:53;99774.94;;;18.88;51.86
54236;BME280;40151;43.606;1.472;2023-05-17T08:42:22;99773.09;;;18.90;51.85
54236;BME280;40151;43.606;1.472;2023-05-17T08:44:52;99767.81;;;18.90;51.69
54236;BME280;40151;43.606;1.472;2023-05-17T08:47:18;99767.81;;;18.90;52.01
54236;BME280;40151;43.606;1.472;2023-05-17T08:49:53;99766.00;;;18.90;51.67
54236;BME280;40151;43.606;1.472;2023-05-17T08:52:19;99768.66;;;18.90;51.90
54236;BME280;40151;43.606;1.472;2023-05-17T08:54:45;99764.22;;;18.91;51.87
54236;BME280;40151;43.606;1.472;2023-05-17T08:57:11;99760.66;;;18.92;52.00
54236;BME280;40151;43.606;1.472;2023-05-17T08:59:38;99767.66;;;18.93;51.69
54236;BME280;40151;43.606;1.472;2023-05-17T09:02:04;99764.94;;;18.95;51.79
54236;BME280;40151;43.606;1.472;2023-05-17T09:04:30;99771.94;;;18.96;51.94
54236;BME280;40151;43.606;1.472;2023-05-17T09:06:56;99765.72;;;18.97;51.69
54236;BME280;40151;43.606;1.472;2023-05-17T09:09:22;99756.00;;;18.97;51.90
54236;BME280;40151;43.606;1.472;2023-05-17T09:11:47;99755.06;;;18.98;51.82
54236;BME280;40151;43.606;1.472;2023-05-17T09:14:14;99756.78;;;18.99;51.88
54236;BME280;40151;43.606;1.472;2023-05-17T09:16:40;99752.44;;;18.98;52.00
54236;BME280;40151;43.606;1.472;2023-05-17T09:19:07;99758.50;;;19.00;51.63
54236;BME280;40151;43.606;1.472;2023-05-17T09:21:38;99753.22;;;19.00;51.92
54236;BME280;40151;43.606;1.472;2023-05-17T09:24:03;99748.78;;;19.01;51.82
54236;BME280;40151;43.606;1.472;2023-05-17T09:26:42;99753.22;;;19.00;52.04
54236;BME280;40151;43.606;1.472;2023-05-17T09:29:12;99749.63;;;19.03;51.96
54236;BME280;40151;43.606;1.472;2023-05-17T09:31:38;99744.22;;;19.04;51.85
54236;BME280;40151;43.606;1.472;2023-05-17T09:34:04;99738.00;;;19.05;52.06
54236;BME280;40151;43.606;1.472;2023-05-17T09:36:32;99731.00;;;19.04;51.87
54236;BME280;40151;43.606;1.472;2023-05-17T09:39:01;99740.66;;;19.05;52.04
54236;BME280;40151;43.606;1.472;2023-05-17T09:41:30;99740.66;;;19.05;51.88
54236;BME280;40151;43.606;1.472;2023-05-17T09:43:58;99750.31;;;19.07;51.99
54236;BME280;40151;43.606;1.472;2023-05-17T09:46:23;99750.22;;;19.08;51.89
54236;BME280;40151;43.606;1.472;2023-05-17T09:48:53;99745.88;;;19.07;51.79
54236;BME280;40151;43.606;1.472;2023-05-17T09:51:30;99741.38;;;19.09;51.89
54236;BME280;40151;43.606;1.472;2023-05-17T09:53:57;99740.50;;;19.09;51.91
54236;BME280;40151;43.606;1.472;2023-05-17T09:56:26;99743.94;;;19.11;52.00
54236;BME280;40151;43.606;1.472;2023-05-17T09:58:52;99737.81;;;19.10;51.95
54236;BME280;40151;43.606;1.472;2023-05-17T10:01:18;99745.66;;;19.12;51.90
54236;BME280;40151;43.606;1.472;2023-05-17T10:03:44;99740.38;;;19.12;52.06
54236;BME280;40151;43.606;1.472;2023-05-17T10:06:10;99736.78;;;19.13;51.81
54236;BME280;40151;43.606;1.472;2023-05-17T10:08:42;99742.91;;;19.13;52.13
54236;BME280;40151;43.606;1.472;2023-05-17T10:11:09;99749.91;;;19.14;52.04
54236;BME280;40151;43.606;1.472;2023-05-17T10:14:01;99740.22;;;19.15;52.09
54236;BME280;40151;43.606;1.472;2023-05-17T10:16:32;99736.63;;;19.16;51.88
54236;BME280;40151;43.606;1.472;2023-05-17T10:19:01;99726.91;;;19.16;52.19
54236;BME280;40151;43.606;1.472;2023-05-17T10:21:29;99735.69;;;19.17;52.21
54236;BME280;40151;43.606;1.472;2023-05-17T10:23:54;99737.44;;;19.18;51.79
54236;BME280;40151;43.606;1.472;2023-05-17T10:26:21;99741.78;;;19.19;52.02
54236;BME280;40151;43.606;1.472;2023-05-17T10:28:46;99730.25;;;19.20;52.18
54236;BME280;40151;43.606;1.472;2023-05-17T10:31:14;99724.97;;;19.20;52.16
54236;BME280;40151;43.606;1.472;2023-05-17T10:33:41;99729.41;;;19.19;51.91
54236;BME280;40151;43.606;1.472;2023-05-17T10:36:09;99726.69;;;19.21;52.08
54236;BME280;40151;43.606;1.472;2023-05-17T10:38:36;99727.44;;;19.23;51.83
54236;BME280;40151;43.606;1.472;2023-05-17T10:41:02;99719.50;;;19.23;52.06
54236;BME280;40151;43.606;1.472;2023-05-17T10:43:29;99716.88;;;19.23;52.02
54236;BME280;40151;43.606;1.472;2023-05-17T10:45:55;99725.59;;;19.25;51.90
54236;BME280;40151;43.606;1.472;2023-05-17T10:48:21;99722.88;;;19.27;52.07
54236;BME280;40151;43.606;1.472;2023-05-17T10:50:46;99718.44;;;19.27;52.23
54236;BME280;40151;43.606;1.472;2023-05-17T10:53:12;99719.31;;;19.28;52.06
54236;BME280;40151;43.606;1.472;2023-05-17T10:55:42;99709.56;;;19.28;51.90
54236;BME280;40151;43.606;1.472;2023-05-17T11:00:40;99698.06;;;19.29;51.91
54236;BME280;40151;43.606;1.472;2023-05-17T11:05:41;99704.13;;;19.31;51.88
54236;BME280;40151;43.606;1.472;2023-05-17T11:08:15;99695.25;;;19.32;51.97
54236;BME280;40151;43.606;1.472;2023-05-17T11:11:06;99695.25;;;19.32;52.27
54236;BME280;40151;43.606;1.472;2023-05-17T11:13:32;99689.03;;;19.34;51.88
54236;BME280;40151;43.606;1.472;2023-05-17T11:16:06;99681.94;;;19.34;51.95
54236;BME280;40151;43.606;1.472;2023-05-17T11:18:48;99688.09;;;19.35;52.06
54236;BME280;40151;43.606;1.472;2023-05-17T11:21:14;99680.94;;;19.37;52.10
54236;BME280;40151;43.606;1.472;2023-05-17T11:23:42;99687.94;;;19.38;51.92
54236;BME280;40151;43.606;1.472;2023-05-17T11:26:21;99672.94;;;19.38;52.04
54236;BME280;40151;43.606;1.472;2023-05-17T11:28:51;99687.00;;;19.39;52.08
54236;BME280;40151;43.606;1.472;2023-05-17T11:31:36;99673.78;;;19.39;52.22
54236;BME280;40151;43.606;1.472;2023-05-17T11:34:06;99682.47;;;19.41;52.24
54236;BME280;40151;43.606;1.472;2023-05-17T11:36:32;99675.34;;;19.43;52.17
54236;BME280;40151;43.606;1.472;2023-05-17T11:39:14;99680.63;;;19.43;52.07
54236;BME280;40151;43.606;1.472;2023-05-17T11:41:51;99678.00;;;19.43;51.98
54236;BME280;40151;43.606;1.472;2023-05-17T11:44:39;99668.16;;;19.45;52.07
54236;BME280;40151;43.606;1.472;2023-05-17T11:47:07;99677.81;;;19.46;52.17
54236;BME280;40151;43.606;1.472;2023-05-17T11:49:38;99675.16;;;19.46;51.98
54236;BME280;40151;43.606;1.472;2023-05-17T11:52:04;99672.44;;;19.48;52.00
54236;BME280;40151;43.606;1.472;2023-05-17T11:54:31;99671.63;;;19.47;52.16
54236;BME280;40151;43.606;1.472;2023-05-17T11:56:58;99673.31;;;19.48;51.99
54236;BME280;40151;43.606;1.472;2023-05-17T11:59:24;99657.44;;;19.48;52.26
54236;BME280;40151;43.606;1.472;2023-05-17T12:01:50;99655.56;;;19.50;52.32
54236;BME280;40151;43.606;1.472;2023-05-17T12:04:23;99657.25;;;19.51;52.18
54236;BME280;40151;43.606;1.472;2023-05-17T12:06:55;99656.31;;;19.52;52.19
54236;BME280;40151;43.606;1.472;2023-05-17T12:09:23;99657.25;;;19.51;52.17
54236;BME280;40151;43.606;1.472;2023-05-17T12:11:50;99649.25;;;19.53;52.26
54236;BME280;40151;43.606;1.472;2023-05-17T12:14:16;99647.38;;;19.55;52.12
54236;BME280;40151;43.606;1.472;2023-05-17T12:16:50;99650.88;;;19.55;52.13
54236;BME280;40151;43.606;1.472;2023-05-17T12:19:20;99649.19;;;19.54;52.11
54236;BME280;40151;43.606;1.472;2023-05-17T12:21:46;99655.25;;;19.56;52.06
54236;BME280;40151;43.606;1.472;2023-05-17T12:24:12;99655.25;;;19.56;52.07
54236;BME280;40151;43.606;1.472;2023-05-17T12:26:45;99650.81;;;19.57;52.18
54236;BME280;40151;43.606;1.472;2023-05-17T12:29:11;99650.72;;;19.58;52.12
54236;BME280;40151;43.606;1.472;2023-05-17T12:31:46;99637.47;;;19.58;52.00
54236;BME280;40151;43.606;1.472;2023-05-17T12:34:12;99645.34;;;19.60;52.10
54236;BME280;40151;43.606;1.472;2023-05-17T12:36:38;99645.34;;;19.60;52.23
54236;BME280;40151;43.606;1.472;2023-05-17T12:39:04;99646.22;;;19.61;52.12
54236;BME280;40151;43.606;1.472;2023-05-17T12:41:37;99637.31;;;19.62;52.20
54236;BME280;40151;43.606;1.472;2023-05-17T12:44:04;99637.31;;;19.62;52.09
54236;BME280;40151;43.606;1.472;2023-05-17T12:46:31;99634.59;;;19.63;52.16
54236;BME280;40151;43.606;1.472;2023-05-17T12:49:04;99632.78;;;19.64;52.32
54236;BME280;40151;43.606;1.472;2023-05-17T12:51:45;99636.31;;;19.64;52.12
54236;BME280;40151;43.606;1.472;2023-05-17T12:56:48;99635.28;;;19.67;52.04
54236;BME280;40151;43.606;1.472;2023-05-17T12:59:15;99635.22;;;19.68;52.30
54236;BME280;40151;43.606;1.472;2023-05-17T13:01:47;99628.13;;;19.69;51.94
54236;BME280;40151;43.606;1.472;2023-05-17T13:04:14;99629.81;;;19.70;52.26
54236;BME280;40151;43.606;1.472;2023-05-17T13:09:09;99624.53;;;19.70;52.22
54236;BME280;40151;43.606;1.472;2023-05-17T13:11:35;99628.81;;;19.72;52.14
54236;BME280;40151;43.606;1.472;2023-05-17T13:14:08;99626.16;;;19.72;52.02
54236;BME280;40151;43.606;1.472;2023-05-17T13:16:36;99619.94;;;19.73;52.08
54236;BME280;40151;43.606;1.472;2023-05-17T13:19:10;99614.56;;;19.75;51.98
54236;BME280;40151;43.606;1.472;2023-05-17T13:21:36;99611.91;;;19.75;52.09
54236;BME280;40151;43.606;1.472;2023-05-17T13:24:02;99620.63;;;19.77;52.20
54236;BME280;40151;43.606;1.472;2023-05-17T13:26:27;99614.47;;;19.77;52.13